createdAt,value
2022-08-05T00:06:03.119Z,14.02
2022-08-05T00:11:30.172Z,13.95
2022-08-05T00:17:01.986Z,13.00
2022-08-05T00:22:32.010Z,14.25
2022-08-05T00:28:02.484Z,13.73
2022-08-05T00:34:55.196Z,12.32
2022-08-05T00:39:19.772Z,12.63
2022-08-05T00:44:50.397Z,13.35
2022-08-05T00:50:20.866Z,12.48
2022-08-05T00:55:50.814Z,12.43
2022-08-05T01:01:24.683Z,12.93
2022-08-05T01:07:13.616Z,12.80
2022-08-05T01:13:05.018Z,12.98
2022-08-05T01:18:47.965Z,12.13
2022-08-05T01:24:42.864Z,13.05
2022-08-05T01:30:19.141Z,13.40
2022-08-05T01:36:13.099Z,14.37
2022-08-05T01:41:47.645Z,16.73
2022-08-05T01:47:21.180Z,15.50
2022-08-05T01:52:54.115Z,13.35
2022-08-05T01:58:30.046Z,13.32
2022-08-05T02:04:13.036Z,12.20
2022-08-05T02:09:42.250Z,12.27
2022-08-05T02:15:23.374Z,13.98
2022-08-05T02:20:58.775Z,12.95
2022-08-05T02:26:36.571Z,14.02
2022-08-05T02:32:10.720Z,14.07
2022-08-05T02:37:46.553Z,16.40
2022-08-05T02:43:24.109Z,16.45
2022-08-05T02:48:54.615Z,16.98
2022-08-05T02:54:35.828Z,17.08
2022-08-05T03:00:07.640Z,16.48
2022-08-05T03:06:55.041Z,17.33
2022-08-05T03:11:54.565Z,17.02
2022-08-05T03:17:20.363Z,16.33
2022-08-05T03:22:51.005Z,15.45
2022-08-05T03:28:21.814Z,14.98
2022-08-05T03:33:53.151Z,16.55
2022-08-05T03:39:27.092Z,15.57
2022-08-05T03:44:58.295Z,13.30
2022-08-05T03:50:30.326Z,12.20
2022-08-05T03:56:12.127Z,12.32
2022-08-05T04:01:49.200Z,10.93
2022-08-05T04:07:19.296Z,12.38
2022-08-05T04:12:53.805Z,12.35
2022-08-05T04:18:25.963Z,13.23
2022-08-05T04:24:05.783Z,13.45
2022-08-05T04:29:35.851Z,13.07
2022-08-05T04:35:17.342Z,15.43
2022-08-05T04:40:50.860Z,14.48
2022-08-05T04:46:27.763Z,16.05
2022-08-05T04:52:00.505Z,16.10
2022-08-05T04:57:29.865Z,16.17
2022-08-05T05:03:08.991Z,17.83
2022-08-05T05:08:42.800Z,18.55
2022-08-05T05:14:16.149Z,19.58
2022-08-05T05:19:47.587Z,21.45
2022-08-05T05:25:18.123Z,25.33
2022-08-05T05:30:49.734Z,26.95
2022-08-05T05:36:18.671Z,46.17
2022-08-05T05:41:54.251Z,41.92
2022-08-05T05:47:23.604Z,48.38
2022-08-05T05:52:59.869Z,43.30
2022-08-05T05:58:32.226Z,37.47
2022-08-05T06:04:03.835Z,27.27
2022-08-05T06:10:01.599Z,18.73
2022-08-05T06:15:24.094Z,16.10
2022-08-05T06:20:54.273Z,15.18
2022-08-05T06:26:23.935Z,13.93
2022-08-05T06:31:55.113Z,13.32
2022-08-05T06:37:39.462Z,13.63
2022-08-05T06:43:51.710Z,13.50
2022-08-05T06:49:08.455Z,11.27
2022-08-05T06:54:38.402Z,14.13
2022-08-05T07:00:09.873Z,10.85
2022-08-05T07:05:41.122Z,12.65
2022-08-05T07:11:15.490Z,10.35
2022-08-05T07:17:59.112Z,9.40
2022-08-05T07:22:41.988Z,8.18
2022-08-05T07:28:17.384Z,8.35
2022-08-05T07:33:46.996Z,8.48
2022-08-05T07:39:24.888Z,8.57
2022-08-05T07:45:09.294Z,8.32
2022-08-05T07:50:39.590Z,7.57
2022-08-05T07:57:00.516Z,7.90
2022-08-05T08:02:03.053Z,9.68
2022-08-05T08:07:39.786Z,8.05
2022-08-05T08:13:29.304Z,8.60
2022-08-05T08:18:58.545Z,9.77
2022-08-05T08:24:51.034Z,8.48
2022-08-05T08:30:32.560Z,8.38
2022-08-05T08:36:39.009Z,10.07
2022-08-05T08:42:00.192Z,7.28
2022-08-05T08:48:05.437Z,7.68
2022-08-05T08:53:24.254Z,6.53
2022-08-05T08:58:54.290Z,8.02
2022-08-05T09:04:30.281Z,6.82
2022-08-05T09:09:59.683Z,7.57
2022-08-05T09:15:28.682Z,6.00
2022-08-05T09:21:01.090Z,6.25
2022-08-05T09:26:30.107Z,5.95
2022-08-05T09:32:51.325Z,5.75
2022-08-05T09:38:12.808Z,5.50
2022-08-05T09:43:46.580Z,5.72
2022-08-05T09:49:40.327Z,6.40
2022-08-05T09:55:57.087Z,6.35
2022-08-05T10:01:13.276Z,6.72
2022-08-05T10:06:55.115Z,6.28
2022-08-05T10:12:33.857Z,6.22
2022-08-05T10:18:11.947Z,6.97
2022-08-05T10:23:55.621Z,6.43
2022-08-05T10:30:06.693Z,4.85
2022-08-05T10:35:22.620Z,4.05
2022-08-05T10:41:09.911Z,4.75
2022-08-05T10:52:39.359Z,2.08
2022-08-05T10:58:20.626Z,4.33
2022-08-05T11:04:08.576Z,3.92
2022-08-05T11:09:46.086Z,4.63
2022-08-05T11:15:21.914Z,3.47
2022-08-05T11:20:54.078Z,3.95
2022-08-05T11:26:28.361Z,4.57
2022-08-05T11:32:25.884Z,4.72
2022-08-05T11:38:36.776Z,4.10
2022-08-05T11:44:05.846Z,4.95
2022-08-05T11:49:35.810Z,4.43
2022-08-05T11:55:10.708Z,4.15
2022-08-05T12:00:44.225Z,4.70
2022-08-05T12:06:17.446Z,4.78
2022-08-05T12:11:51.113Z,5.90
2022-08-05T12:18:04.242Z,6.28
2022-08-05T12:23:11.426Z,6.38
2022-08-05T12:28:42.420Z,6.50
2022-08-05T12:34:21.541Z,6.00
2022-08-05T12:39:54.006Z,7.43
2022-08-05T12:45:42.456Z,8.07
2022-08-05T12:52:10.378Z,7.57
2022-08-05T12:57:09.477Z,7.75
2022-08-05T13:02:40.838Z,6.95
2022-08-05T13:08:10.167Z,6.75
2022-08-05T13:14:05.434Z,7.95
2022-08-05T13:19:51.857Z,8.00
2022-08-05T13:25:22.143Z,9.68
2022-08-05T13:31:14.007Z,10.40
2022-08-05T13:36:45.303Z,10.43
2022-08-05T13:42:15.357Z,11.60
2022-08-05T13:48:09.954Z,11.90
2022-08-05T13:53:48.035Z,13.73
2022-08-05T13:59:20.289Z,18.00
2022-08-05T14:05:11.757Z,18.00
2022-08-05T14:10:44.831Z,16.10
2022-08-05T14:16:17.045Z,16.08
2022-08-05T14:22:08.878Z,9.13
2022-08-05T14:27:47.366Z,6.40
2022-08-05T14:33:22.655Z,6.03
2022-08-05T14:38:54.195Z,4.93
2022-08-05T14:44:25.256Z,4.93
2022-08-05T14:50:06.679Z,3.90
2022-08-05T14:55:43.706Z,4.90
2022-08-05T15:01:47.614Z,5.72
2022-08-05T15:08:05.528Z,5.80
2022-08-05T15:13:05.561Z,4.82
2022-08-05T15:18:47.093Z,4.93
2022-08-05T15:24:17.514Z,5.03
2022-08-05T15:29:49.027Z,4.78
2022-08-05T15:35:19.295Z,4.30
2022-08-05T15:41:20.986Z,5.38
2022-08-05T15:52:16.437Z,5.07
2022-08-05T15:57:49.061Z,5.05
2022-08-05T16:03:18.996Z,5.03
2022-08-05T16:08:55.214Z,4.90
2022-08-05T16:14:25.096Z,4.82
2022-08-05T16:20:05.500Z,4.68
2022-08-05T16:25:42.723Z,4.40
2022-08-05T16:31:14.267Z,4.97
2022-08-05T16:36:43.763Z,4.45
2022-08-05T16:42:18.498Z,4.25
2022-08-05T16:47:54.213Z,5.10
2022-08-05T16:54:02.082Z,4.83
2022-08-05T16:59:16.847Z,4.70
2022-08-05T17:04:45.483Z,3.90
2022-08-05T17:10:15.836Z,4.63
2022-08-05T17:15:47.956Z,4.82
2022-08-05T17:21:23.495Z,6.00
2022-08-05T17:26:52.863Z,6.60
2022-08-05T17:32:22.959Z,6.03
2022-08-05T17:38:00.666Z,7.15
2022-08-05T17:43:50.487Z,5.80
2022-08-05T17:49:23.885Z,6.57
2022-08-05T17:54:55.489Z,6.03
2022-08-05T18:00:28.652Z,6.75
2022-08-05T18:06:04.005Z,7.75
2022-08-05T18:11:33.995Z,8.65
2022-08-05T18:17:05.812Z,8.93
2022-08-05T18:22:57.237Z,10.52
2022-08-05T18:28:28.368Z,10.68
2022-08-05T18:33:57.577Z,10.15
2022-08-05T18:40:29.629Z,10.48
2022-08-05T18:45:17.552Z,11.02
2022-08-05T18:52:04.500Z,12.05
2022-08-05T18:56:54.808Z,13.15
2022-08-05T19:02:27.877Z,13.63
2022-08-05T19:08:00.254Z,13.82
2022-08-05T19:13:35.517Z,14.35
2022-08-05T19:19:05.813Z,13.38
2022-08-05T19:24:38.641Z,14.93
2022-08-05T19:30:24.965Z,15.70
2022-08-05T19:35:56.548Z,16.90
2022-08-05T19:42:03.360Z,18.17
2022-08-05T19:47:17.150Z,17.48
2022-08-05T19:52:47.805Z,18.67
2022-08-05T19:58:28.374Z,18.63
2022-08-05T20:04:00.455Z,16.77
2022-08-05T20:09:53.741Z,14.02
2022-08-05T20:15:51.647Z,12.65
2022-08-05T20:26:43.147Z,12.20
2022-08-05T20:32:12.381Z,13.93
2022-08-05T20:38:05.985Z,13.73
2022-08-05T20:43:57.707Z,10.45
2022-08-05T20:49:24.529Z,10.80
2022-08-05T20:54:59.832Z,9.60
2022-08-05T21:00:54.511Z,9.45
2022-08-05T21:06:28.535Z,9.60
2022-08-05T21:12:10.242Z,9.88
2022-08-05T21:17:40.914Z,10.45
2022-08-05T21:23:12.815Z,10.13
2022-08-05T21:28:47.623Z,10.75
2022-08-05T21:34:20.469Z,11.05
2022-08-05T21:39:51.491Z,11.40
2022-08-05T21:45:24.482Z,11.82
2022-08-05T21:50:55.651Z,11.60
2022-08-05T21:56:26.902Z,11.57
2022-08-05T22:01:56.892Z,11.45
2022-08-05T22:07:54.461Z,13.90
2022-08-05T22:14:32.955Z,13.38
2022-08-05T22:19:15.065Z,15.15
2022-08-05T22:25:20.897Z,13.95
2022-08-05T22:30:57.906Z,11.90
2022-08-05T22:36:31.046Z,12.40
2022-08-05T22:42:11.313Z,15.25
2022-08-05T22:47:49.855Z,14.43
2022-08-05T22:53:25.617Z,13.23
2022-08-05T22:59:43.622Z,12.15
2022-08-05T23:04:53.602Z,12.70
2022-08-05T23:10:25.673Z,13.98
2022-08-05T23:15:54.315Z,12.63
2022-08-05T23:21:24.128Z,12.02
2022-08-05T23:27:12.585Z,14.15
2022-08-05T23:32:45.238Z,16.98
2022-08-05T23:38:14.774Z,19.80
2022-08-05T23:44:06.347Z,18.25
2022-08-05T23:49:37.253Z,19.38
2022-08-05T23:55:10.048Z,20.33
